Time;durP1;ratioP1;P1;durP2;ratioP2;P2;SDS_P1;SDS_P2;PMS_P1;PMS_P2;Temp;Humidity;BMP_temperature;BMP_pressure;BME280_temperature;BME280_humidity;BME280_pressure;Samples;Min_cycle;Max_cycle;Signal;HPM_P1;HPM_P2
2021/03/02 00:00:22;;;;;;;12.00;7.32;;;11.00;75.80;;;;;;5125379;27;20376;-43
2021/03/02 00:02:49;;;;;;;12.75;7.68;;;11.00;75.80;;;;;;5126828;27;20044;-41
2021/03/02 00:05:15;;;;;;;11.32;7.35;;;11.00;75.80;;;;;;5125060;27;20047;-41
2021/03/02 00:07:42;;;;;;;12.45;7.95;;;11.00;75.80;;;;;;5126873;27;20044;-41
2021/03/02 00:10:10;;;;;;;12.25;7.70;;;11.00;75.80;;;;;;5123734;27;20050;-42
2021/03/02 00:12:37;;;;;;;12.13;7.85;;;11.00;75.80;;;;;;5125449;27;20066;-41
2021/03/02 00:15:05;;;;;;;13.45;7.97;;;11.00;75.80;;;;;;5126359;27;20113;-41
2021/03/02 00:17:36;;;;;;;14.30;8.52;;;11.00;75.80;;;;;;5123474;27;20049;-41
2021/03/02 00:20:11;;;;;;;13.25;8.18;;;11.00;75.80;;;;;;5123539;27;20040;-41
2021/03/02 00:23:05;;;;;;;12.35;7.68;;;11.00;75.80;;;;;;5129046;27;20122;-41
2021/03/02 00:25:36;;;;;;;10.82;6.95;;;11.00;75.80;;;;;;5126730;27;20118;-41
2021/03/02 00:28:06;;;;;;;14.18;8.15;;;11.00;75.80;;;;;;5123099;27;20140;-42
2021/03/02 00:30:34;;;;;;;14.77;8.02;;;11.00;75.80;;;;;;5123123;27;20059;-40
2021/03/02 00:33:01;;;;;;;13.10;7.53;;;11.00;75.80;;;;;;5127155;27;20395;-41
2021/03/02 00:35:27;;;;;;;11.95;7.35;;;11.00;75.80;;;;;;5126635;27;20123;-42
2021/03/02 00:37:54;;;;;;;13.35;9.15;;;11.00;75.80;;;;;;5124736;27;20052;-42
2021/03/02 00:40:19;;;;;;;13.13;8.32;;;11.00;75.80;;;;;;5126724;27;20112;-40
2021/03/02 00:42:45;;;;;;;11.88;7.88;;;11.00;75.80;;;;;;5125788;28;20043;-41
2021/03/02 00:45:11;;;;;;;13.07;8.07;;;11.00;75.80;;;;;;5123920;27;20047;-41
2021/03/02 00:47:37;;;;;;;14.25;8.05;;;11.00;75.80;;;;;;5125022;28;20031;-41
2021/03/02 00:50:05;;;;;;;12.43;8.55;;;11.00;76.10;;;;;;5123840;27;20084;-42
2021/03/02 00:52:31;;;;;;;13.75;8.13;;;11.00;75.80;;;;;;5123955;28;20054;-41
2021/03/02 00:54:57;;;;;;;12.55;8.77;;;11.00;75.70;;;;;;5122247;28;20043;-43
2021/03/02 00:57:22;;;;;;;14.52;9.45;;;11.00;75.70;;;;;;5126239;28;20399;-42
2021/03/02 00:59:48;;;;;;;13.00;8.40;;;11.00;75.80;;;;;;5125435;28;20070;-40
2021/03/02 01:02:14;;;;;;;14.38;8.77;;;11.00;76.40;;;;;;5125584;27;20504;-42
2021/03/02 01:04:39;;;;;;;16.15;8.45;;;11.00;75.80;;;;;;5123858;28;20050;-40
2021/03/02 01:07:06;;;;;;;14.27;8.27;;;10.90;75.70;;;;;;5125142;28;20039;-41
2021/03/02 01:09:32;;;;;;;13.00;7.80;;;11.00;75.80;;;;;;5124604;28;20408;-43
2021/03/02 01:11:58;;;;;;;15.30;8.57;;;11.00;75.80;;;;;;5125240;27;20147;-42
2021/03/02 01:14:25;;;;;;;15.20;9.10;;;11.00;75.80;;;;;;5124697;28;20071;-42
2021/03/02 01:16:50;;;;;;;12.13;8.25;;;10.90;75.70;;;;;;5124509;28;20044;-40
2021/03/02 01:19:16;;;;;;;13.30;8.15;;;10.90;75.80;;;;;;5122200;28;20397;-43
2021/03/02 01:21:42;;;;;;;13.50;8.35;;;11.00;75.80;;;;;;5126782;28;20085;-41
2021/03/02 01:24:10;;;;;;;15.35;9.10;;;10.90;75.80;;;;;;5123384;28;20035;-42
2021/03/02 01:26:36;;;;;;;12.65;7.82;;;10.90;75.70;;;;;;5125781;28;20047;-44
2021/03/02 01:29:02;;;;;;;11.45;8.23;;;11.00;75.80;;;;;;5122714;28;20394;-40
2021/03/02 01:31:28;;;;;;;13.50;8.77;;;10.90;75.70;;;;;;5127243;27;20054;-47
2021/03/02 01:33:54;;;;;;;13.77;8.27;;;10.90;75.70;;;;;;5125605;28;20043;-43
2021/03/02 01:36:20;;;;;;;12.55;7.88;;;10.90;75.70;;;;;;5124295;28;20044;-44
2021/03/02 01:38:45;;;;;;;16.15;8.80;;;10.90;75.70;;;;;;5120883;28;20052;-41
2021/03/02 01:41:11;;;;;;;14.25;8.55;;;10.90;75.70;;;;;;5127638;28;20411;-42
2021/03/02 01:43:37;;;;;;;11.15;7.68;;;10.90;75.80;;;;;;5124112;28;20051;-42
2021/03/02 01:46:04;;;;;;;14.73;8.98;;;10.90;75.70;;;;;;5124066;28;20146;-40
2021/03/02 01:48:32;;;;;;;14.27;8.45;;;10.90;75.70;;;;;;5122799;27;20051;-41
2021/03/02 01:50:58;;;;;;;15.40;8.35;;;10.90;75.70;;;;;;5126165;28;20391;-44
2021/03/02 01:53:24;;;;;;;16.10;8.98;;;10.90;75.70;;;;;;5126232;28;20043;-43
2021/03/02 01:55:50;;;;;;;13.63;8.73;;;10.90;75.70;;;;;;5122414;28;20040;-40
2021/03/02 01:58:15;;;;;;;13.15;8.40;;;10.90;75.70;;;;;;5124029;27;20035;-41
2021/03/02 02:00:41;;;;;;;15.57;8.93;;;10.90;75.70;;;;;;5130040;27;20039;-42
2021/03/02 02:03:07;;;;;;;14.63;8.85;;;10.90;75.70;;;;;;5129004;27;20093;-40
2021/03/02 02:05:40;;;;;;;17.08;9.60;;;10.90;75.70;;;;;;5128772;27;20061;-43
2021/03/02 02:08:07;;;;;;;13.88;8.57;;;10.90;75.70;;;;;;5128372;27;20036;-42
2021/03/02 02:10:52;;;;;;;15.23;9.75;;;10.90;75.70;;;;;;5125857;27;20046;-42
2021/03/02 02:13:48;;;;;;;16.17;10.00;;;10.90;75.70;;;;;;5126821;27;20057;-44
2021/03/02 02:16:16;;;;;;;12.63;8.13;;;10.90;75.70;;;;;;5127149;27;20065;-42
2021/03/02 02:18:44;;;;;;;14.10;9.32;;;10.90;75.80;;;;;;5128451;27;20129;-45
2021/03/02 02:21:12;;;;;;;14.05;8.18;;;10.90;75.80;;;;;;5125355;27;20039;-42
2021/03/02 02:23:55;;;;;;;14.93;9.38;;;10.90;75.80;;;;;;5128658;27;20509;-42
2021/03/02 02:26:46;;;;;;;14.30;9.57;;;10.90;75.80;;;;;;5127040;27;20100;-43
2021/03/02 02:29:15;;;;;;;14.65;8.63;;;10.90;75.80;;;;;;5124831;27;20050;-43
2021/03/02 02:31:44;;;;;;;14.43;9.60;;;10.90;75.80;;;;;;5130239;27;20050;-42
2021/03/02 02:34:15;;;;;;;15.23;9.43;;;10.90;75.80;;;;;;5124757;27;20108;-41
2021/03/02 02:36:42;;;;;;;15.02;9.20;;;10.90;75.80;;;;;;5128452;27;20479;-41
2021/03/02 02:39:08;;;;;;;14.95;8.82;;;10.90;75.80;;;;;;5104439;28;20467;-42
2021/03/02 02:41:35;;;;;;;14.75;8.40;;;10.90;75.80;;;;;;5105455;28;20052;-43
2021/03/02 02:44:01;;;;;;;13.68;9.35;;;10.90;75.80;;;;;;5108323;28;20134;-43
2021/03/02 02:46:27;;;;;;;13.32;8.32;;;10.90;75.80;;;;;;5105923;28;20048;-43
2021/03/02 02:48:57;;;;;;;17.15;9.55;;;10.90;75.80;;;;;;5107399;28;20380;-42
2021/03/02 02:51:24;;;;;;;13.85;9.15;;;10.90;75.80;;;;;;5107110;28;20051;-42
2021/03/02 02:53:51;;;;;;;14.50;8.48;;;10.90;75.80;;;;;;5105733;28;20066;-45
2021/03/02 02:56:19;;;;;;;14.68;8.90;;;10.90;75.80;;;;;;5107685;28;20047;-44
2021/03/02 02:59:00;;;;;;;13.60;9.15;;;10.90;75.80;;;;;;5105858;28;20396;-42
2021/03/02 03:01:33;;;;;;;14.05;8.93;;;10.90;75.80;;;;;;5108072;28;20521;-41
2021/03/02 03:04:02;;;;;;;13.13;8.90;;;10.90;75.80;;;;;;5106519;28;20040;-40
2021/03/02 03:06:30;;;;;;;17.00;10.00;;;10.90;75.80;;;;;;5105325;28;20043;-41
2021/03/02 03:09:00;;;;;;;15.50;10.15;;;10.90;75.80;;;;;;5109878;28;20048;-41
2021/03/02 03:11:34;;;;;;;15.48;9.98;;;10.90;75.80;;;;;;5103791;28;20451;-42
2021/03/02 03:14:01;;;;;;;14.20;9.82;;;10.90;75.80;;;;;;5106230;28;20048;-41
2021/03/02 03:16:27;;;;;;;16.25;9.43;;;10.80;75.70;;;;;;5107920;28;20044;-42
2021/03/02 03:19:00;;;;;;;15.95;10.55;;;10.90;75.80;;;;;;5107723;28;20047;-42
2021/03/02 03:21:26;;;;;;;15.43;8.77;;;11.00;75.80;;;;;;5104143;28;20050;-41
2021/03/02 03:23:53;;;;;;;15.95;9.75;;;10.90;75.80;;;;;;5110117;28;20115;-41
2021/03/02 03:26:23;;;;;;;15.77;9.50;;;10.90;75.80;;;;;;5103314;28;20058;-41
2021/03/02 03:28:52;;;;;;;15.68;9.88;;;10.80;75.70;;;;;;5107231;28;20043;-42
2021/03/02 03:31:18;;;;;;;15.93;10.25;;;10.80;75.70;;;;;;5108504;28;20122;-40
2021/03/02 03:33:44;;;;;;;17.67;9.90;;;10.90;75.80;;;;;;5105392;28;20536;-41
2021/03/02 03:36:11;;;;;;;16.63;9.65;;;10.90;76.40;;;;;;5105373;28;20376;-42
2021/03/02 03:38:38;;;;;;;16.40;9.93;;;10.80;75.70;;;;;;5104794;28;20047;-42
2021/03/02 03:41:04;;;;;;;14.43;10.00;;;10.80;75.70;;;;;;5108942;28;20043;-41
2021/03/02 03:43:30;;;;;;;15.30;9.40;;;10.80;75.70;;;;;;5104107;28;20051;-40
2021/03/02 03:45:56;;;;;;;17.10;10.65;;;10.90;75.80;;;;;;5107524;27;20040;-42
2021/03/02 03:48:23;;;;;;;15.80;10.23;;;10.80;75.70;;;;;;5102969;28;20055;-40
2021/03/02 03:50:48;;;;;;;14.73;9.15;;;10.80;75.70;;;;;;5109605;28;20384;-42
2021/03/02 03:53:17;;;;;;;14.88;9.35;;;10.80;75.70;;;;;;5102536;28;20044;-41
2021/03/02 03:55:46;;;;;;;16.30;9.07;;;10.80;75.70;;;;;;5106583;28;20388;-42
2021/03/02 03:58:19;;;;;;;15.57;9.02;;;10.80;75.70;;;;;;5102588;28;20043;-41
2021/03/02 04:00:49;;;;;;;16.48;10.27;;;10.80;75.70;;;;;;5105503;28;20047;-39
2021/03/02 04:03:15;;;;;;;17.48;9.85;;;10.80;75.70;;;;;;5105696;28;20050;-41
2021/03/02 04:05:42;;;;;;;14.40;9.40;;;10.90;75.80;;;;;;5105564;28;20047;-42
2021/03/02 04:08:08;;;;;;;16.45;10.05;;;10.80;75.70;;;;;;5103015;28;20048;-41
2021/03/02 04:10:35;;;;;;;16.65;10.05;;;10.80;75.70;;;;;;5104341;28;20464;-39
2021/03/02 04:13:09;;;;;;;14.75;9.27;;;10.80;76.30;;;;;;5107635;28;20047;-40
2021/03/02 04:15:36;;;;;;;17.45;10.45;;;10.80;75.70;;;;;;5104948;28;20045;-41
2021/03/02 04:18:02;;;;;;;16.42;9.80;;;10.80;75.70;;;;;;5102364;28;20036;-40
2021/03/02 04:20:31;;;;;;;15.63;10.10;;;10.80;75.70;;;;;;5103022;28;20066;-41
2021/03/02 04:22:57;;;;;;;17.00;10.45;;;10.80;75.70;;;;;;5105296;28;20036;-42
2021/03/02 04:25:22;;;;;;;17.70;10.20;;;10.80;75.70;;;;;;5107103;28;20476;-40
2021/03/02 04:27:48;;;;;;;15.50;10.32;;;10.80;75.70;;;;;;5104919;28;20577;-40
2021/03/02 04:30:14;;;;;;;17.65;10.85;;;10.80;75.70;;;;;;5101920;28;20052;-39
2021/03/02 04:32:40;;;;;;;16.48;10.27;;;10.80;75.70;;;;;;5107168;28;20044;-42
2021/03/02 04:35:07;;;;;;;16.92;9.85;;;10.80;75.70;;;;;;5102679;28;20083;-39
2021/03/02 04:37:32;;;;;;;18.73;11.25;;;10.80;75.70;;;;;;5104113;28;20544;-40
2021/03/02 04:39:58;;;;;;;18.25;10.43;;;10.80;75.70;;;;;;5104122;28;20039;-40
2021/03/02 04:42:24;;;;;;;16.05;9.55;;;10.80;75.70;;;;;;5110190;28;20403;-43
2021/03/02 04:44:49;;;;;;;17.90;10.75;;;10.80;75.70;;;;;;5105663;28;20481;-43
2021/03/02 04:47:15;;;;;;;17.45;10.82;;;10.80;75.70;;;;;;5105250;28;20071;-41
2021/03/02 04:49:41;;;;;;;17.13;10.57;;;10.80;75.70;;;;;;5101999;28;20048;-41
2021/03/02 04:52:07;;;;;;;16.40;10.05;;;10.80;75.70;;;;;;5107940;28;20449;-41
2021/03/02 04:54:32;;;;;;;17.42;10.90;;;10.80;75.70;;;;;;5105315;28;20052;-40
2021/03/02 04:56:58;;;;;;;17.80;9.98;;;10.80;75.70;;;;;;5104445;28;20043;-42
2021/03/02 04:59:24;;;;;;;17.33;10.60;;;10.80;75.70;;;;;;5103042;28;20051;-40
2021/03/02 05:01:50;;;;;;;16.50;10.13;;;10.80;75.70;;;;;;5104672;28;20131;-41
2021/03/02 05:04:15;;;;;;;18.55;10.52;;;10.80;75.70;;;;;;5110332;28;20054;-41
2021/03/02 05:06:41;;;;;;;18.50;10.50;;;10.80;75.70;;;;;;5101732;28;20059;-41
2021/03/02 05:09:07;;;;;;;15.25;9.95;;;10.80;75.70;;;;;;5101841;28;20443;-41
2021/03/02 05:11:33;;;;;;;19.33;11.32;;;10.80;75.70;;;;;;5107130;28;20131;-42
2021/03/02 05:13:59;;;;;;;17.52;10.32;;;10.70;75.70;;;;;;5105662;28;20470;-43
2021/03/02 05:16:24;;;;;;;19.80;11.43;;;10.80;75.70;;;;;;5103028;28;20044;-41
2021/03/02 05:18:50;;;;;;;18.20;11.05;;;10.80;75.70;;;;;;5106003;28;20544;-41
2021/03/02 05:21:16;;;;;;;18.85;9.98;;;10.80;75.70;;;;;;5102260;28;20075;-42
2021/03/02 05:23:41;;;;;;;14.38;9.75;;;10.70;75.70;;;;;;5104319;28;20124;-41
2021/03/02 05:26:07;;;;;;;17.58;10.38;;;10.70;75.60;;;;;;5102533;28;20097;-42
2021/03/02 05:28:33;;;;;;;17.73;11.05;;;10.70;75.60;;;;;;5103717;28;20043;-43
2021/03/02 05:30:59;;;;;;;14.95;9.82;;;10.70;75.70;;;;;;5106602;28;20039;-40
2021/03/02 05:33:24;;;;;;;16.33;9.98;;;10.80;75.70;;;;;;5108057;28;20059;-44
2021/03/02 05:35:51;;;;;;;16.55;10.30;;;10.70;75.70;;;;;;5112299;28;20050;-42
2021/03/02 05:38:16;;;;;;;18.52;11.40;;;10.80;75.70;;;;;;5122025;27;20051;-42
2021/03/02 05:40:43;;;;;;;16.77;10.13;;;10.70;75.60;;;;;;5128588;27;20086;-42
2021/03/02 05:43:09;;;;;;;17.85;10.63;;;10.70;75.60;;;;;;5128232;27;20130;-42
2021/03/02 05:45:35;;;;;;;17.52;10.77;;;10.80;75.70;;;;;;5131073;27;20043;-43
2021/03/02 05:48:06;;;;;;;16.38;10.10;;;10.70;75.60;;;;;;5125847;27;20499;-41
2021/03/02 05:50:32;;;;;;;17.95;11.32;;;10.70;75.70;;;;;;5128223;27;20043;-44
2021/03/02 05:53:01;;;;;;;18.23;10.48;;;10.70;75.60;;;;;;5126134;27;20050;-42
2021/03/02 05:55:28;;;;;;;16.35;10.05;;;10.70;75.60;;;;;;5130075;27;20046;-42
2021/03/02 05:57:54;;;;;;;17.85;10.57;;;10.70;75.60;;;;;;5126625;27;20175;-40
2021/03/02 06:00:20;;;;;;;20.05;11.30;;;10.70;75.60;;;;;;5126882;27;20132;-41
2021/03/02 06:02:48;;;;;;;17.35;10.90;;;10.70;75.60;;;;;;5127936;27;20403;-40
2021/03/02 06:05:14;;;;;;;17.00;10.13;;;10.70;75.60;;;;;;5129110;27;20424;-42
2021/03/02 06:07:44;;;;;;;17.40;11.48;;;10.70;75.60;;;;;;5129338;27;20513;-41
2021/03/02 06:10:11;;;;;;;18.00;10.80;;;10.70;75.60;;;;;;5125375;27;20126;-42
2021/03/02 06:12:58;;;;;;;17.88;10.15;;;10.70;75.60;;;;;;5126779;27;20051;-42
2021/03/02 06:15:25;;;;;;;17.80;9.95;;;10.70;75.60;;;;;;5128356;27;20483;-40
2021/03/02 06:18:14;;;;;;;19.15;11.13;;;10.70;75.60;;;;;;5127814;27;20039;-41
2021/03/02 06:20:41;;;;;;;17.65;10.80;;;10.70;75.60;;;;;;5126967;27;20082;-42
2021/03/02 06:23:30;;;;;;;18.27;10.38;;;10.70;75.60;;;;;;5124173;27;20069;-42
2021/03/02 06:26:08;;;;;;;19.20;11.73;;;10.70;75.60;;;;;;5128568;27;20107;-43
2021/03/02 06:28:43;;;;;;;19.35;11.45;;;10.70;75.60;;;;;;5128832;27;20050;-42
2021/03/02 06:31:38;;;;;;;17.75;11.27;;;10.70;75.60;;;;;;5126136;27;20141;-43
2021/03/02 06:34:14;;;;;;;16.77;11.13;;;10.70;75.60;;;;;;5132203;27;20043;-41
2021/03/02 06:36:58;;;;;;;18.35;11.30;;;10.70;75.60;;;;;;5132721;27;20051;-42
2021/03/02 06:39:32;;;;;;;18.38;11.05;;;10.70;75.60;;;;;;5136015;27;20515;-39
2021/03/02 06:42:13;;;;;;;19.15;11.30;;;10.70;75.60;;;;;;5136186;27;20050;-40
2021/03/02 06:44:44;;;;;;;20.05;12.10;;;10.70;75.60;;;;;;5135358;27;20096;-42
2021/03/02 06:47:12;;;;;;;20.02;11.60;;;10.70;75.60;;;;;;5135952;27;20047;-41
2021/03/02 06:49:45;;;;;;;17.05;9.52;;;10.70;75.60;;;;;;5136139;27;20043;-41
2021/03/02 06:52:18;;;;;;;17.58;11.02;;;10.70;75.60;;;;;;5136089;27;20041;-41
2021/03/02 06:54:49;;;;;;;20.98;11.98;;;10.70;75.60;;;;;;5135695;27;20055;-40
2021/03/02 06:57:22;;;;;;;18.25;10.63;;;10.70;75.60;;;;;;5135485;27;20097;-41
2021/03/02 07:00:07;;;;;;;18.30;11.05;;;10.70;75.60;;;;;;5135964;27;20123;-40
2021/03/02 07:02:39;;;;;;;15.90;10.13;;;10.70;75.60;;;;;;5135800;27;20475;-41
2021/03/02 07:05:15;;;;;;;17.55;10.57;;;10.70;75.60;;;;;;5135609;27;20498;-41
2021/03/02 07:07:46;;;;;;;15.13;10.48;;;10.70;75.70;;;;;;5135399;27;20046;-42
2021/03/02 07:10:15;;;;;;;17.25;10.60;;;10.70;75.70;;;;;;5135336;27;20043;-41
2021/03/02 07:12:42;;;;;;;17.50;10.63;;;10.70;75.70;;;;;;5135623;27;20051;-42
2021/03/02 07:15:17;;;;;;;16.33;10.85;;;10.70;75.60;;;;;;5135274;27;20138;-40
2021/03/02 07:17:44;;;;;;;17.50;11.00;;;10.70;75.70;;;;;;5135061;27;20116;-44
2021/03/02 07:20:17;;;;;;;15.15;9.73;;;10.70;75.70;;;;;;5131851;27;20054;-41
2021/03/02 07:22:48;;;;;;;17.02;10.30;;;10.70;75.70;;;;;;5123691;27;20043;-43
2021/03/02 07:25:18;;;;;;;15.18;10.20;;;10.60;75.70;;;;;;5124134;27;20137;-43
2021/03/02 07:27:48;;;;;;;16.65;10.32;;;10.60;75.70;;;;;;5128408;27;20077;-41
2021/03/02 07:30:14;;;;;;;16.60;10.77;;;10.70;75.70;;;;;;5124551;27;20417;-42
2021/03/02 07:32:43;;;;;;;17.23;10.85;;;10.70;75.70;;;;;;5125863;27;20174;-39
2021/03/02 07:35:19;;;;;;;16.77;11.15;;;10.70;75.70;;;;;;5123325;27;20468;-42
2021/03/02 07:37:46;;;;;;;17.00;10.70;;;10.60;75.70;;;;;;5124484;27;20090;-40
2021/03/02 07:40:14;;;;;;;15.85;9.77;;;10.60;75.70;;;;;;5125784;27;20085;-41
2021/03/02 07:42:40;;;;;;;20.90;11.55;;;10.70;75.70;;;;;;5123331;27;20044;-41
2021/03/02 07:45:13;;;;;;;19.17;11.15;;;10.60;75.60;;;;;;5125665;27;20050;-41
2021/03/02 07:47:41;;;;;;;15.23;9.88;;;10.60;75.60;;;;;;5124702;27;20044;-41
2021/03/02 07:50:20;;;;;;;16.63;10.90;;;10.60;75.60;;;;;;5124962;27;20047;-40
2021/03/02 07:52:47;;;;;;;18.88;10.95;;;10.60;75.70;;;;;;5134779;27;20114;-41
2021/03/02 07:55:21;;;;;;;16.30;10.13;;;10.60;76.30;;;;;;5133308;27;20091;-40
2021/03/02 07:57:48;;;;;;;18.10;10.35;;;10.70;75.70;;;;;;5134579;27;20051;-41
2021/03/02 08:00:13;;;;;;;16.90;11.50;;;10.70;75.70;;;;;;5134221;27;20067;-41
2021/03/02 08:02:39;;;;;;;15.88;9.25;;;10.60;75.70;;;;;;5134518;27;20043;-41
2021/03/02 08:05:27;;;;;;;16.27;9.90;;;10.60;75.70;;;;;;5131098;27;20475;-42
2021/03/02 08:08:24;;;;;;;17.50;10.57;;;10.60;75.60;;;;;;5123952;27;20044;-41
2021/03/02 08:10:54;;;;;;;16.15;9.88;;;10.70;75.70;;;;;;5122829;27;20482;-40
2021/03/02 08:13:50;;;;;;;17.30;11.07;;;10.70;75.70;;;;;;5124500;27;20043;-40
2021/03/02 08:16:54;;;;;;;18.20;10.68;;;10.60;75.60;;;;;;5065560;28;20045;-40
2021/03/02 08:19:35;;;;;;;21.08;12.20;;;10.60;75.60;;;;;;5053616;28;20145;-41
2021/03/02 08:22:02;;;;;;;20.83;12.50;;;10.50;74.90;;;;;;5054605;28;20124;-45
2021/03/02 08:24:58;;;;;;;21.38;12.90;;;10.40;75.20;;;;;;5071060;28;20060;-42
2021/03/02 08:27:48;;;;;;;22.77;12.75;;;10.40;75.30;;;;;;5058088;28;20052;-42
2021/03/02 08:30:15;;;;;;;23.38;13.25;;;10.40;75.40;;;;;;5071007;28;20117;-40
2021/03/02 08:32:42;;;;;;;20.13;11.95;;;10.40;75.40;;;;;;5070937;28;20091;-40
2021/03/02 08:35:14;;;;;;;22.10;12.60;;;10.40;75.40;;;;;;5070304;28;20060;-44
2021/03/02 08:37:57;;;;;;;22.08;12.35;;;10.40;75.40;;;;;;5069982;28;20492;-39
2021/03/02 08:40:25;;;;;;;22.10;12.55;;;10.40;75.40;;;;;;5070925;28;20076;-42
2021/03/02 08:43:13;;;;;;;20.50;12.02;;;10.40;75.40;;;;;;5070526;28;20389;-42
2021/03/02 08:45:53;;;;;;;21.58;12.30;;;10.50;75.40;;;;;;5070837;28;20067;-44
2021/03/02 08:48:32;;;;;;;18.58;12.23;;;10.50;75.40;;;;;;5070662;28;20485;-42
2021/03/02 08:51:12;;;;;;;21.02;12.60;;;10.50;75.40;;;;;;5070485;28;20470;-45
2021/03/02 08:53:40;;;;;;;24.17;15.23;;;10.50;75.40;;;;;;5109006;28;20048;-46
2021/03/02 08:56:08;;;;;;;22.33;14.23;;;10.40;73.60;;;;;;5120199;28;20043;-45
2021/03/02 08:58:40;;;;;;;37.88;16.20;;;9.80;73.20;;;;;;5133780;27;20059;-45
2021/03/02 09:01:12;;;;;;;29.83;15.65;;;9.30;73.10;;;;;;5133716;27;20123;-44
2021/03/02 09:03:44;;;;;;;27.85;15.75;;;8.80;73.00;;;;;;5121846;28;20487;-52
2021/03/02 09:06:17;;;;;;;24.63;14.68;;;8.40;73.70;;;;;;5115942;28;20044;-43
2021/03/02 09:08:45;;;;;;;29.33;16.45;;;8.30;74.50;;;;;;5125266;27;20054;-47
2021/03/02 09:11:12;;;;;;;26.50;15.57;;;8.30;74.90;;;;;;5126384;27;20074;-49
2021/03/02 09:13:39;;;;;;;22.27;15.30;;;8.40;75.20;;;;;;5127047;27;20448;-50
2021/03/02 09:16:22;;;;;;;27.77;16.23;;;8.50;75.40;;;;;;5128065;27;20509;-52
2021/03/02 09:19:25;;;;;;;27.00;16.35;;;8.60;75.60;;;;;;5127957;27;20039;-52
2021/03/02 09:21:50;;;;;;;27.10;15.93;;;8.70;75.70;;;;;;5126043;27;20039;-48
2021/03/02 09:24:19;;;;;;;26.38;15.30;;;8.80;75.80;;;;;;5127014;27;20043;-43
2021/03/02 09:27:03;;;;;;;26.73;15.90;;;8.90;75.90;;;;;;5128097;27;20185;-42
2021/03/02 09:29:34;;;;;;;25.48;16.05;;;9.00;76.10;;;;;;5127745;27;20413;-45
2021/03/02 09:32:03;;;;;;;24.85;15.00;;;9.00;76.00;;;;;;5125137;27;20039;-44
2021/03/02 09:34:33;;;;;;;24.45;14.90;;;9.10;76.10;;;;;;5128034;27;20062;-47
2021/03/02 09:37:04;;;;;;;24.73;14.88;;;9.20;76.20;;;;;;5127056;27;20419;-41
2021/03/02 09:39:30;;;;;;;23.85;14.77;;;9.20;76.20;;;;;;5125763;27;20501;-44
2021/03/02 09:41:56;;;;;;;27.90;15.23;;;9.30;76.30;;;;;;5126800;27;20043;-45
2021/03/02 09:44:28;;;;;;;25.17;14.75;;;9.30;76.20;;;;;;5127294;27;20062;-41
2021/03/02 09:46:57;;;;;;;25.23;14.20;;;9.40;76.20;;;;;;5125805;27;20040;-48
2021/03/02 09:49:44;;;;;;;27.48;14.82;;;9.40;76.20;;;;;;5125738;27;20039;-44
2021/03/02 09:52:49;;;;;;;23.45;14.40;;;9.50;76.20;;;;;;5119030;27;20048;-44
2021/03/02 09:55:18;;;;;;;22.83;14.18;;;9.50;76.20;;;;;;5053650;28;20116;-40
2021/03/02 09:58:01;;;;;;;23.77;13.95;;;9.60;76.20;;;;;;5053634;28;20493;-41
2021/03/02 10:00:30;;;;;;;23.20;13.23;;;9.60;76.20;;;;;;5053128;28;20102;-41
2021/03/02 10:02:58;;;;;;;23.10;14.10;;;9.60;76.20;;;;;;5053607;28;20405;-39
2021/03/02 10:05:30;;;;;;;21.75;14.15;;;9.70;76.20;;;;;;5053671;28;20045;-42
2021/03/02 10:07:59;;;;;;;22.70;14.48;;;9.70;76.20;;;;;;5056168;28;20052;-38
2021/03/02 10:10:41;;;;;;;22.25;13.45;;;9.70;76.20;;;;;;5073270;28;20045;-39
2021/03/02 10:13:07;;;;;;;24.42;13.55;;;9.70;76.20;;;;;;5086011;28;20044;-38
2021/03/02 10:15:33;;;;;;;22.23;13.88;;;9.80;76.20;;;;;;5092149;28;20424;-40
2021/03/02 10:18:21;;;;;;;21.33;13.23;;;9.80;76.20;;;;;;5081170;28;20051;-41
2021/03/02 10:21:17;;;;;;;22.05;13.75;;;9.80;76.10;;;;;;5087404;28;20154;-38
2021/03/02 10:23:47;;;;;;;22.58;13.05;;;9.90;76.20;;;;;;5051992;28;20524;-40
2021/03/02 10:26:28;;;;;;;21.67;12.95;;;9.90;76.10;;;;;;5088847;28;20050;-43
2021/03/02 10:28:55;;;;;;;20.95;13.60;;;9.90;76.10;;;;;;5113726;28;20085;-41
2021/03/02 10:31:21;;;;;;;20.73;12.30;;;9.90;76.10;;;;;;5112751;28;20055;-39
2021/03/02 10:33:47;;;;;;;20.88;13.88;;;9.90;76.00;;;;;;5096927;28;20056;-40
2021/03/02 10:36:24;;;;;;;22.23;12.73;;;9.90;76.00;;;;;;5093119;28;20128;-45
2021/03/02 10:38:51;;;;;;;18.67;11.30;;;10.00;76.00;;;;;;5092215;28;20058;-42
2021/03/02 10:41:19;;;;;;;21.08;12.65;;;10.00;76.10;;;;;;5093228;28;20091;-37
2021/03/02 10:43:48;;;;;;;20.25;12.90;;;10.00;76.00;;;;;;5092797;28;20140;-45
2021/03/02 10:46:15;;;;;;;20.10;11.98;;;10.00;76.00;;;;;;5091693;28;20052;-41
2021/03/02 10:48:41;;;;;;;22.67;13.48;;;10.10;76.00;;;;;;5092981;28;20534;-40
2021/03/02 10:51:06;;;;;;;18.70;12.10;;;10.10;76.00;;;;;;5093221;28;20048;-40
2021/03/02 10:53:32;;;;;;;19.75;13.35;;;10.00;75.90;;;;;;5090709;28;20091;-41
2021/03/02 10:55:58;;;;;;;21.02;12.85;;;10.20;76.00;;;;;;5092431;28;20063;-44
2021/03/02 10:58:25;;;;;;;18.33;11.95;;;10.10;75.90;;;;;;5092868;28;20105;-41
2021/03/02 11:00:52;;;;;;;17.42;11.50;;;10.10;75.90;;;;;;5110102;28;20500;-44
2021/03/02 11:03:18;;;;;;;19.92;12.65;;;10.10;75.90;;;;;;5114983;28;20411;-40
2021/03/02 11:05:43;;;;;;;20.08;12.15;;;10.20;75.90;;;;;;5114958;28;20039;-41
2021/03/02 11:08:09;;;;;;;17.50;11.50;;;10.20;75.90;;;;;;5114261;28;20051;-41
2021/03/02 11:10:35;;;;;;;20.02;12.77;;;10.20;75.90;;;;;;5114813;28;20134;-42
2021/03/02 11:13:01;;;;;;;18.40;11.80;;;10.20;75.90;;;;;;5114302;27;20049;-44
2021/03/02 11:15:26;;;;;;;20.13;12.15;;;10.20;75.80;;;;;;5129383;27;20096;-41
2021/03/02 11:17:52;;;;;;;19.63;13.85;;;10.20;75.80;;;;;;5131178;27;20047;-39
2021/03/02 11:20:18;;;;;;;19.17;11.88;;;10.20;75.90;;;;;;5118949;27;20054;-41
2021/03/02 11:22:44;;;;;;;18.70;11.57;;;10.20;75.80;;;;;;5125779;27;20108;-40
2021/03/02 11:25:17;;;;;;;17.95;11.52;;;10.30;75.90;;;;;;5132246;27;20099;-43
2021/03/02 11:27:43;;;;;;;21.20;12.88;;;10.30;75.80;;;;;;5116263;27;20051;-43
2021/03/02 11:30:10;;;;;;;17.13;10.23;;;10.30;75.80;;;;;;5114062;27;20047;-43
2021/03/02 11:32:36;;;;;;;16.75;10.65;;;10.30;75.80;;;;;;5119770;27;20062;-39
2021/03/02 11:35:03;;;;;;;17.95;11.25;;;10.30;75.70;;;;;;5114234;27;20142;-40
2021/03/02 11:37:28;;;;;;;17.45;11.40;;;10.30;75.70;;;;;;5114508;28;20143;-40
2021/03/02 11:39:54;;;;;;;19.35;11.32;;;10.40;75.80;;;;;;5114263;27;20488;-38
2021/03/02 11:42:20;;;;;;;17.02;10.30;;;10.40;76.40;;;;;;5113518;28;20048;-42
2021/03/02 11:44:45;;;;;;;17.60;11.88;;;10.40;75.70;;;;;;5114244;28;20052;-39
2021/03/02 11:47:11;;;;;;;15.07;10.65;;;10.40;75.70;;;;;;5114118;28;20084;-41
2021/03/02 11:49:37;;;;;;;18.60;11.18;;;10.40;75.70;;;;;;5113455;28;20100;-37
2021/03/02 11:52:03;;;;;;;19.60;10.70;;;10.40;75.70;;;;;;5114471;28;20547;-39
2021/03/02 11:54:30;;;;;;;16.92;11.13;;;10.40;75.70;;;;;;5114021;28;20103;-40
2021/03/02 11:56:55;;;;;;;17.10;11.27;;;10.40;75.60;;;;;;5131089;27;20129;-40
2021/03/02 11:59:21;;;;;;;17.48;10.60;;;10.40;75.60;;;;;;5133351;27;20399;-39
2021/03/02 12:01:47;;;;;;;17.42;10.93;;;10.40;75.60;;;;;;5134631;27;20141;-41
2021/03/02 12:04:12;;;;;;;14.70;10.30;;;10.40;75.50;;;;;;5133241;27;20043;-39
2021/03/02 12:06:38;;;;;;;17.10;10.90;;;10.50;75.60;;;;;;5134029;27;20043;-44
2021/03/02 12:09:04;;;;;;;16.23;10.57;;;10.50;75.60;;;;;;5134825;27;20051;-39
2021/03/02 12:11:30;;;;;;;16.95;11.93;;;10.50;75.60;;;;;;5133983;27;20051;-37
2021/03/02 12:13:56;;;;;;;15.35;10.75;;;10.50;75.60;;;;;;5133903;27;20138;-39
2021/03/02 12:16:22;;;;;;;15.27;10.32;;;10.50;75.50;;;;;;5134687;27;20494;-38
2021/03/02 12:18:48;;;;;;;18.27;11.05;;;10.50;75.50;;;;;;5125093;27;20048;-39
2021/03/02 12:21:14;;;;;;;16.58;10.73;;;10.50;75.50;;;;;;5112069;28;20035;-39
2021/03/02 12:23:39;;;;;;;17.23;10.57;;;10.50;75.40;;;;;;5112015;28;20047;-43
2021/03/02 12:26:05;;;;;;;15.32;10.38;;;10.60;75.50;;;;;;5115052;27;20048;-41
2021/03/02 12:28:31;;;;;;;17.08;10.75;;;10.50;75.40;;;;;;5113063;28;20505;-40
2021/03/02 12:30:56;;;;;;;17.75;11.43;;;10.60;75.40;;;;;;5110922;27;20044;-40
2021/03/02 12:33:22;;;;;;;17.55;11.18;;;10.60;75.40;;;;;;5126560;27;20039;-40
2021/03/02 12:35:48;;;;;;;17.45;11.32;;;10.60;75.40;;;;;;5118839;27;20134;-39
2021/03/02 12:38:14;;;;;;;16.67;10.55;;;10.60;75.40;;;;;;5115562;27;20115;-36
2021/03/02 12:40:40;;;;;;;16.30;10.55;;;10.60;75.40;;;;;;5119466;27;20043;-39
2021/03/02 12:43:05;;;;;;;16.48;10.27;;;10.60;75.30;;;;;;5112590;28;20048;-39